Time,TemperatureF,DewpointF,PressureIn,WindDirection,WindDirectionDegrees,WindSpeedMPH,WindSpeedGustMPH,Humidity,HourlyPrecipIn,Conditions,Clouds,dailyrainin,SolarRadiationWatts/m^2,SoftwareType,DateUTC
2013-11-02 00:00:00,43.0,43.0,-100.00,SSW,204,13.0,26.0,100,0.06,,,0.19,0.000000,,2013-11-02 07:00:00,
2013-11-02 00:42:00,43.0,43.0,-100.00,SSW,204,13.0,26.0,100,0.06,,,0.19,0.000000,,2013-11-02 07:42:00,
2013-11-02 00:52:00,43.0,43.0,-100.00,SSW,204,13.0,26.0,100,0.06,,,0.19,0.000000,,2013-11-02 07:52:00,
2013-11-02 01:00:00,43.0,43.0,-100.00,SSW,204,14.0,30.0,100,0.02,,,-99.99,0.000000,,2013-11-02 08:00:00,
2013-11-02 01:22:00,43.0,43.0,-100.00,SSW,204,14.0,30.0,100,0.02,,,-99.99,0.000000,,2013-11-02 08:22:00,
2013-11-02 01:32:00,43.0,43.0,-100.00,SSW,204,14.0,30.0,100,0.02,,,-99.99,0.000000,,2013-11-02 08:32:00,
2013-11-02 01:42:00,43.0,43.0,-100.00,SSW,204,14.0,30.0,100,0.02,,,-99.99,0.000000,,2013-11-02 08:42:00,
2013-11-02 01:52:00,43.0,43.0,-100.00,SSW,204,14.0,30.0,100,0.02,,,-99.99,0.000000,,2013-11-02 08:52:00,
2013-11-02 02:00:00,44.0,44.0,-100.00,SSW,198,12.0,28.0,100,0.00,,,0.21,0.000000,,2013-11-02 09:00:00,
2013-11-02 02:22:00,44.0,44.0,-100.00,SSW,198,12.0,28.0,100,0.00,,,0.21,0.000000,,2013-11-02 09:22:00,
2013-11-02 02:33:00,44.0,44.0,-100.00,SSW,198,12.0,28.0,100,0.00,,,0.21,0.000000,,2013-11-02 09:33:00,
2013-11-02 02:43:00,44.0,44.0,-100.00,SSW,198,12.0,28.0,100,0.00,,,0.21,0.000000,,2013-11-02 09:43:00,
2013-11-02 02:53:00,44.0,44.0,-100.00,SSW,198,12.0,28.0,100,0.00,,,0.21,0.000000,,2013-11-02 09:53:00,
2013-11-02 03:00:00,43.0,43.0,-100.00,SSW,192,13.0,29.0,100,0.12,,,0.33,0.000000,,2013-11-02 10:00:00,
2013-11-02 03:42:00,43.0,43.0,-100.00,SSW,192,13.0,29.0,100,0.12,,,0.33,0.000000,,2013-11-02 10:42:00,
2013-11-02 03:53:00,43.0,43.0,-100.00,SSW,192,13.0,29.0,100,0.12,,,0.33,0.000000,,2013-11-02 10:53:00,
2013-11-02 04:00:00,43.0,43.0,-100.00,SSE,148,5.0,24.0,100,0.11,,,0.44,0.000000,,2013-11-02 11:00:00,
2013-11-02 04:42:00,43.0,43.0,-100.00,SSE,148,5.0,24.0,100,0.11,,,0.44,0.000000,,2013-11-02 11:42:00,
2013-11-02 04:52:00,43.0,43.0,-100.00,SSE,148,5.0,24.0,100,0.11,,,0.44,0.000000,,2013-11-02 11:52:00,
2013-11-02 05:00:00,43.0,43.0,-100.00,SSW,192,12.0,24.0,100,0.02,,,0.46,0.000000,,2013-11-02 12:00:00,
2013-11-02 05:42:00,43.0,43.0,-100.00,SSW,192,12.0,24.0,100,0.02,,,0.46,0.000000,,2013-11-02 12:42:00,
2013-11-02 05:52:00,43.0,43.0,-100.00,SSW,192,12.0,24.0,100,0.02,,,0.46,0.000000,,2013-11-02 12:52:00,
2013-11-02 06:00:00,45.0,45.0,-100.00,South,171,7.0,23.0,100,0.01,,,0.47,0.000000,,2013-11-02 13:00:00,
2013-11-02 06:42:00,45.0,45.0,-100.00,South,171,7.0,23.0,100,0.01,,,0.47,0.000000,,2013-11-02 13:42:00,
2013-11-02 06:52:00,45.0,45.0,-100.00,South,171,7.0,23.0,100,0.01,,,0.47,0.000000,,2013-11-02 13:52:00,
2013-11-02 07:00:00,43.0,43.0,-100.00,ENE,76,8.0,18.0,100,0.12,,,0.59,0.000000,,2013-11-02 14:00:00,
2013-11-02 07:42:00,43.0,43.0,-100.00,ENE,76,8.0,18.0,100,0.12,,,0.59,0.000000,,2013-11-02 14:42:00,
2013-11-02 07:52:00,43.0,43.0,-100.00,ENE,76,8.0,18.0,100,0.12,,,0.59,0.000000,,2013-11-02 14:52:00,
2013-11-02 08:00:00,43.0,43.0,-100.00,SSW,205,9.0,20.0,100,0.01,,,0.60,0.000000,,2013-11-02 15:00:00,
2013-11-02 08:43:00,43.0,43.0,-100.00,SSW,205,9.0,20.0,100,0.01,,,0.60,0.000000,,2013-11-02 15:43:00,
2013-11-02 08:53:00,43.0,43.0,-100.00,SSW,205,9.0,20.0,100,0.01,,,0.60,0.000000,,2013-11-02 15:53:00,
2013-11-02 09:00:00,42.0,42.0,-100.00,SSW,208,8.0,18.0,100,0.01,,,0.61,11.000000,,2013-11-02 16:00:00,
2013-11-02 09:43:00,42.0,42.0,-100.00,SSW,208,8.0,18.0,100,0.01,,,0.61,11.000000,,2013-11-02 16:43:00,
2013-11-02 09:54:00,42.0,42.0,-100.00,SSW,208,8.0,18.0,100,0.01,,,0.61,11.000000,,2013-11-02 16:54:00,
2013-11-02 10:00:00,37.0,37.0,-100.00,SSW,196,7.0,25.0,100,0.17,,,0.78,14.000000,,2013-11-02 17:00:00,
2013-11-02 10:43:00,37.0,37.0,-100.00,SSW,196,7.0,25.0,100,0.17,,,0.78,14.000000,,2013-11-02 17:43:00,
2013-11-02 10:53:00,37.0,37.0,-100.00,SSW,196,7.0,25.0,100,0.17,,,0.78,14.000000,,2013-11-02 17:53:00,
2013-11-02 11:00:00,35.0,35.0,-100.00,SSW,200,8.0,28.0,100,0.20,,,0.98,19.000000,,2013-11-02 18:00:00,
2013-11-02 11:42:00,35.0,35.0,-100.00,SSW,200,8.0,28.0,100,0.20,,,0.98,19.000000,,2013-11-02 18:42:00,
2013-11-02 11:52:00,35.0,35.0,-100.00,SSW,200,8.0,28.0,100,0.20,,,0.98,19.000000,,2013-11-02 18:52:00,
2013-11-02 12:00:00,38.0,38.0,-100.00,SW,217,10.0,26.0,100,0.03,,,1.01,34.000000,,2013-11-02 19:00:00,
2013-11-02 12:42:00,38.0,38.0,-100.00,SW,217,10.0,26.0,100,0.03,,,1.01,34.000000,,2013-11-02 19:42:00,
2013-11-02 12:52:00,38.0,38.0,-100.00,SW,217,10.0,26.0,100,0.03,,,1.01,34.000000,,2013-11-02 19:52:00,
2013-11-02 13:00:00,37.0,37.0,-100.00,SSW,201,9.0,28.0,100,0.01,,,1.02,62.000000,,2013-11-02 20:00:00,
2013-11-02 13:22:00,37.0,37.0,-100.00,SSW,201,9.0,28.0,100,0.01,,,1.02,62.000000,,2013-11-02 20:22:00,
2013-11-02 13:32:00,37.0,37.0,-100.00,SSW,201,9.0,28.0,100,0.01,,,1.02,62.000000,,2013-11-02 20:32:00,
2013-11-02 13:43:00,37.0,37.0,-100.00,SSW,201,9.0,28.0,100,0.01,,,1.02,62.000000,,2013-11-02 20:43:00,
2013-11-02 13:53:00,37.0,37.0,-100.00,SSW,201,9.0,28.0,100,0.01,,,1.02,62.000000,,2013-11-02 20:53:00,
2013-11-02 14:00:00,37.0,37.0,-100.00,SSW,204,11.0,37.0,100,0.00,,,1.02,76.000000,,2013-11-02 21:00:00,
2013-11-02 14:22:00,37.0,37.0,-100.00,SSW,204,11.0,37.0,100,0.00,,,1.02,76.000000,,2013-11-02 21:22:00,
2013-11-02 14:33:00,37.0,37.0,-100.00,SSW,204,11.0,37.0,100,0.00,,,1.02,76.000000,,2013-11-02 21:33:00,
2013-11-02 14:44:00,37.0,37.0,-100.00,SSW,204,11.0,37.0,100,0.00,,,1.02,76.000000,,2013-11-02 21:44:00,
2013-11-02 14:54:00,37.0,37.0,-100.00,SSW,204,11.0,37.0,100,0.00,,,1.02,76.000000,,2013-11-02 21:54:00,
2013-11-02 15:00:00,37.0,37.0,-100.00,SW,214,11.0,29.0,100,0.00,,,-99.99,121.000000,,2013-11-02 22:00:00,
2013-11-02 15:24:00,37.0,37.0,-100.00,SW,214,11.0,29.0,100,0.00,,,-99.99,121.000000,,2013-11-02 22:24:00,
2013-11-02 15:34:00,37.0,37.0,-100.00,SW,214,11.0,29.0,100,0.00,,,-99.99,121.000000,,2013-11-02 22:34:00,
2013-11-02 15:44:00,37.0,37.0,-100.00,SW,214,11.0,29.0,100,0.00,,,-99.99,121.000000,,2013-11-02 22:44:00,
2013-11-02 15:54:00,37.0,37.0,-100.00,SW,214,11.0,29.0,100,0.00,,,-99.99,121.000000,,2013-11-02 22:54:00,
2013-11-02 16:00:00,37.0,37.0,-100.00,SW,216,12.0,33.0,100,0.00,,,1.02,73.000000,,2013-11-02 23:00:00,
2013-11-02 16:42:00,37.0,37.0,-100.00,SW,216,12.0,33.0,100,0.00,,,1.02,73.000000,,2013-11-02 23:42:00,
2013-11-02 16:52:00,37.0,37.0,-100.00,SW,216,12.0,33.0,100,0.00,,,1.02,73.000000,,2013-11-02 23:52:00,
2013-11-02 17:00:00,37.0,37.0,-100.00,SW,215,8.0,24.0,100,0.00,,,1.02,29.000000,,2013-11-03 00:00:00,
2013-11-02 17:22:00,37.0,37.0,-100.00,SW,215,8.0,24.0,100,0.00,,,1.02,29.000000,,2013-11-03 00:22:00,
2013-11-02 17:33:00,37.0,37.0,-100.00,SW,215,8.0,24.0,100,0.00,,,1.02,29.000000,,2013-11-03 00:33:00,
2013-11-02 17:42:00,37.0,37.0,-100.00,SW,215,8.0,24.0,100,0.00,,,1.02,29.000000,,2013-11-03 00:42:00,
2013-11-02 17:52:00,37.0,37.0,-100.00,SW,215,8.0,24.0,100,0.00,,,1.02,29.000000,,2013-11-03 00:52:00,
2013-11-02 18:00:00,38.0,38.0,-100.00,SSW,200,9.0,28.0,100,0.00,,,1.02,9.000000,,2013-11-03 01:00:00,
2013-11-02 18:42:00,38.0,38.0,-100.00,SSW,200,9.0,28.0,100,0.00,,,1.02,9.000000,,2013-11-03 01:42:00,
2013-11-02 18:52:00,38.0,38.0,-100.00,SSW,200,9.0,28.0,100,0.00,,,1.02,9.000000,,2013-11-03 01:52:00,
2013-11-02 19:00:00,38.0,38.0,-100.00,SSW,212,9.0,22.0,100,0.00,,,1.00,0.000000,,2013-11-03 02:00:00,
2013-11-02 19:43:00,38.0,38.0,-100.00,SSW,212,9.0,22.0,100,0.00,,,1.00,0.000000,,2013-11-03 02:43:00,
2013-11-02 19:52:00,38.0,38.0,-100.00,SSW,212,9.0,22.0,100,0.00,,,1.00,0.000000,,2013-11-03 02:52:00,
2013-11-02 20:00:00,-999.0,-99.9,-100.00,SSW,208,5.0,23.0,-999,-99.99,,,-99.99,0.000000,,2013-11-03 03:00:00,
2013-11-02 20:45:00,38.0,38.0,-100.00,SSW,208,5.0,23.0,100,0.00,,,0.99,0.000000,,2013-11-03 03:45:00,
2013-11-02 20:54:00,38.0,38.0,-100.00,SSW,208,5.0,23.0,100,0.00,,,0.99,0.000000,,2013-11-03 03:54:00,
2013-11-02 21:00:00,37.0,37.0,-100.00,SW,226,6.0,18.0,100,0.00,,,0.92,0.000000,,2013-11-03 04:00:00,
2013-11-02 21:44:00,37.0,37.0,-100.00,SW,226,6.0,18.0,100,0.00,,,0.92,0.000000,,2013-11-03 04:44:00,
2013-11-02 21:52:00,37.0,37.0,-100.00,SW,226,6.0,18.0,100,0.00,,,0.92,0.000000,,2013-11-03 04:52:00,
2013-11-02 22:00:00,37.0,37.0,-100.00,SW,215,6.0,15.0,100,0.00,,,0.90,0.000000,,2013-11-03 05:00:00,
2013-11-02 22:43:00,37.0,37.0,-100.00,SW,215,6.0,15.0,100,0.00,,,0.90,0.000000,,2013-11-03 05:43:00,
2013-11-02 22:53:00,37.0,37.0,-100.00,SW,215,6.0,15.0,100,0.00,,,0.90,0.000000,,2013-11-03 05:53:00,
2013-11-02 23:00:00,37.0,37.0,-100.00,SW,221,7.0,14.0,100,0.00,,,0.89,0.000000,,2013-11-03 06:00:00,
2013-11-02 23:43:00,37.0,37.0,-100.00,SW,221,7.0,14.0,100,0.00,,,0.89,0.000000,,2013-11-03 06:43:00,
2013-11-02 23:53:00,37.0,37.0,-100.00,SW,221,7.0,14.0,100,0.00,,,0.89,0.000000,,2013-11-03 06:53:00,